Time;durP1;ratioP1;P1;durP2;ratioP2;P2;SDS_P1;SDS_P2;PMS_P1;PMS_P2;Temp;Humidity;BMP_temperature;BMP_pressure;BME280_temperature;BME280_humidity;BME280_pressure;Samples;Min_cycle;Max_cycle;Signal;HPM_P1;HPM_P2
2022/10/04 00:00:40;;;;;;;0.30;0.30;;;;;;;12.68;66.62;101801.66;5129793;28;20038;-80
2022/10/04 00:03:21;;;;;;;0.75;0.63;;;;;;;12.63;66.60;101798.22;5115814;28;20597;-80
2022/10/04 00:05:58;;;;;;;0.80;0.80;;;;;;;12.65;66.39;101796.44;5111393;28;20088;-81
2022/10/04 00:08:47;;;;;;;1.00;1.00;;;;;;;12.60;66.61;101785.97;5097953;28;20051;-82
2022/10/04 00:11:42;;;;;;;1.58;1.48;;;;;;;12.60;66.66;101778.94;5119105;28;20065;-82
2022/10/04 00:14:21;;;;;;;0.95;0.95;;;;;;;12.60;66.73;101788.59;5092976;28;20053;-81
2022/10/04 00:16:53;;;;;;;0.50;0.50;;;;;;;12.53;67.34;101785.22;5113980;29;20035;-82
2022/10/04 00:19:46;;;;;;;0.75;0.75;;;;;;;12.54;66.56;101788.72;5093006;28;20034;-82
2022/10/04 00:22:23;;;;;;;0.30;0.30;;;;;;;12.54;66.89;101786.09;5107215;28;20082;-82
2022/10/04 00:25:08;;;;;;;0.40;0.40;;;;;;;12.51;66.96;101787.03;5111671;28;20073;-82
2022/10/04 00:28:15;;;;;;;0.43;0.43;;;;;;;12.51;66.77;101789.66;5115849;28;20058;-81
2022/10/04 00:31:12;;;;;;;1.02;1.02;;;;;;;12.51;66.54;101789.66;5145273;28;20080;-82
2022/10/04 00:33:56;;;;;;;1.05;1.05;;;;;;;12.47;67.32;101782.69;5132126;28;20046;-82
2022/10/04 00:36:43;;;;;;;0.40;0.40;;;;;;;12.47;66.98;101782.69;5144463;28;20054;-83
2022/10/04 00:39:23;;;;;;;0.32;0.32;;;;;;;12.48;66.87;101781.81;5144002;28;20551;-81
2022/10/04 00:42:14;;;;;;;0.65;0.65;;;;;;;12.49;67.08;101783.53;5134768;28;20065;-82
2022/10/04 00:45:02;;;;;;;0.90;0.90;;;;;;;12.49;67.07;101778.28;5107550;28;20070;-82
2022/10/04 00:47:45;;;;;;;0.40;0.40;;;;;;;12.50;66.99;101782.66;5125129;28;20059;-83
2022/10/04 00:50:37;;;;;;;0.70;0.70;;;;;;;12.49;66.88;101786.19;5109617;28;20042;-82
2022/10/04 00:53:37;;;;;;;0.57;0.57;;;;;;;12.46;67.09;101785.38;5107095;28;20046;-83
2022/10/04 00:56:15;;;;;;;0.47;0.47;;;;;;;12.44;67.26;101785.38;5091340;28;20073;-81
2022/10/04 00:59:22;;;;;;;0.40;0.40;;;;;;;12.58;67.12;101780.75;5093621;28;20061;-82
2022/10/04 01:02:06;;;;;;;0.90;0.85;;;;;;;12.46;67.00;101786.22;5117878;28;20035;-82
2022/10/04 01:04:49;;;;;;;1.38;1.27;;;;;;;12.45;67.09;101779.22;5114434;28;20506;-83
2022/10/04 01:07:38;;;;;;;2.30;1.30;;;;;;;12.41;67.04;101781.03;5093224;28;20660;-82
2022/10/04 01:10:26;;;;;;;0.30;0.30;;;;;;;12.38;67.49;101790.75;5114066;28;20050;-83
2022/10/04 01:13:09;;;;;;;1.08;1.02;;;;;;;12.39;66.87;101784.59;5109519;28;20049;-81
2022/10/04 01:16:03;;;;;;;1.05;1.05;;;;;;;12.37;66.72;101779.38;5130976;28;20069;-82
2022/10/04 01:18:36;;;;;;;0.30;0.30;;;;;;;12.37;67.21;101783.75;5122940;28;20035;-83
2022/10/04 01:21:19;;;;;;;1.58;1.05;;;;;;;12.36;67.32;101780.25;5107491;28;20081;-83
2022/10/04 01:23:52;;;;;;;0.50;0.50;;;;;;;12.37;67.38;101770.59;5123823;28;20069;-81
2022/10/04 01:26:31;;;;;;;0.30;0.30;;;;;;;12.36;67.03;101774.13;5100604;28;20279;-82
2022/10/04 01:29:25;;;;;;;1.73;1.20;;;;;;;12.34;67.33;101773.28;5098139;28;20078;-81
2022/10/04 01:31:58;;;;;;;0.30;0.30;;;;;;;12.32;67.33;101772.44;5132694;28;20034;-82
2022/10/04 01:34:29;;;;;;;0.43;0.43;;;;;;;12.31;67.31;101766.34;5114120;28;20825;-82
2022/10/04 01:37:03;;;;;;;0.85;0.65;;;;;;;12.30;67.32;101758.44;5120197;28;20417;-82
2022/10/04 01:39:33;;;;;;;1.25;1.10;;;;;;;12.29;67.81;101760.22;5129667;28;20054;-83
2022/10/04 01:42:17;;;;;;;0.55;0.55;;;;;;;12.26;67.58;101755.00;5131490;28;20069;-82
2022/10/04 01:44:47;;;;;;;;;;;;;;;12.23;67.71;101757.69;5123971;28;20048;-83
2022/10/04 01:47:42;;;;;;;0.50;0.50;;;;;;;12.28;67.60;101751.44;5114497;28;20016;-83
2022/10/04 01:50:19;;;;;;;1.00;1.00;;;;;;;12.28;67.27;101740.91;5112178;28;20061;-82
2022/10/04 01:52:55;;;;;;;0.52;0.52;;;;;;;12.25;67.61;101745.38;5103200;28;20050;-82
2022/10/04 01:55:33;;;;;;;1.65;0.93;;;;;;;12.26;67.76;101742.72;5096027;28;20035;-82
2022/10/04 01:58:43;;;;;;;0.60;0.60;;;;;;;12.25;67.30;101735.72;5131170;28;20050;-81
2022/10/04 02:01:52;;;;;;;0.40;0.40;;;;;;;12.26;67.39;101737.47;5121453;28;20043;-83
2022/10/04 02:04:28;;;;;;;0.65;0.65;;;;;;;12.26;67.69;101737.47;5085716;28;20047;-82
2022/10/04 02:07:00;;;;;;;0.30;0.30;;;;;;;12.24;67.54;101733.97;5110229;28;20035;-82
2022/10/04 02:09:34;;;;;;;0.77;0.77;;;;;;;12.26;67.62;101731.31;5055292;28;20106;-82
2022/10/04 02:12:15;;;;;;;1.38;1.00;;;;;;;12.23;67.67;101737.50;5136183;28;20663;-83
2022/10/04 02:14:52;;;;;;;1.02;1.02;;;;;;;12.17;67.87;101737.63;5106899;28;20054;-82
2022/10/04 02:17:30;;;;;;;0.65;0.65;;;;;;;12.15;67.74;101736.78;5127855;28;20153;-83
2022/10/04 02:20:02;;;;;;;1.08;0.90;;;;;;;12.17;67.37;101737.63;5128035;28;20050;-82
2022/10/04 02:22:33;;;;;;;0.60;0.60;;;;;;;12.17;67.30;101734.09;5138425;28;20125;-82
2022/10/04 02:25:10;;;;;;;;;;;;;;;12.16;67.71;101724.47;5115679;28;20041;-82
2022/10/04 02:27:40;;;;;;;0.40;0.40;;;;;;;12.14;67.61;101716.63;5103713;28;19922;-82
2022/10/04 02:30:12;;;;;;;0.70;0.70;;;;;;;12.13;67.52;101717.50;5097589;28;20043;-83
2022/10/04 02:32:59;;;;;;;0.40;0.40;;;;;;;12.14;67.75;101721.03;5116541;28;20046;-83
2022/10/04 02:35:36;;;;;;;0.45;0.45;;;;;;;12.12;67.98;101713.13;5094820;28;20045;-83
2022/10/04 02:38:16;;;;;;;0.57;0.57;;;;;;;12.10;67.82;101704.44;5108947;28;20082;-81
2022/10/04 02:40:56;;;;;;;0.57;0.57;;;;;;;12.09;67.52;101695.66;5111922;28;20073;-82
2022/10/04 02:43:46;;;;;;;0.32;0.32;;;;;;;12.06;68.01;101698.34;5110501;28;20035;-82
2022/10/04 02:46:23;;;;;;;0.40;0.40;;;;;;;12.06;68.09;101697.47;5130479;28;20026;-82
2022/10/04 02:49:03;;;;;;;0.50;0.50;;;;;;;12.07;67.80;101697.44;5107753;28;20043;-82
2022/10/04 02:51:48;;;;;;;0.65;0.65;;;;;;;12.08;67.54;101690.44;5103951;28;20042;-82
2022/10/04 02:54:44;;;;;;;1.85;0.70;;;;;;;12.06;67.70;101692.22;5134528;28;20262;-82
2022/10/04 02:57:19;;;;;;;3.13;2.58;;;;;;;12.00;67.67;101681.81;5112023;28;20030;-81
2022/10/04 02:59:50;;;;;;;4.25;1.25;;;;;;;12.01;67.81;101678.28;5122356;28;20102;-82
2022/10/04 03:02:29;;;;;;;0.47;0.47;;;;;;;12.04;67.55;101675.56;5102408;28;20101;-82
2022/10/04 03:05:12;;;;;;;0.47;0.47;;;;;;;11.97;67.48;101680.09;5114664;28;20494;-82
2022/10/04 03:07:44;;;;;;;5.15;0.90;;;;;;;11.99;67.54;101685.31;5115761;28;20054;-82
2022/10/04 03:10:17;;;;;;;0.75;0.75;;;;;;;11.96;67.84;101684.44;5118670;28;20030;-81
2022/10/04 03:12:52;;;;;;;1.00;0.90;;;;;;;11.92;67.50;101674.88;5101231;28;20562;-82
2022/10/04 03:15:23;;;;;;;2.78;0.82;;;;;;;11.90;67.75;101674.03;5113880;28;20051;-82
2022/10/04 03:17:54;;;;;;;1.35;1.25;;;;;;;11.92;68.11;101669.63;5105301;29;20055;-83
2022/10/04 03:20:32;;;;;;;0.60;0.60;;;;;;;11.92;67.89;101666.13;5106656;28;20086;-82
2022/10/04 03:23:12;;;;;;;0.70;0.70;;;;;;;11.92;68.00;101656.47;5107707;28;20113;-81
2022/10/04 03:26:13;;;;;;;0.80;0.52;;;;;;;11.88;67.71;101661.81;5132648;28;20041;-82
2022/10/04 03:28:45;;;;;;;0.30;0.30;;;;;;;11.86;67.92;101664.44;5120370;28;20066;-83
2022/10/04 03:31:15;;;;;;;0.43;0.43;;;;;;;11.85;67.78;101668.00;5138147;28;20041;-82
2022/10/04 03:33:56;;;;;;;0.30;0.30;;;;;;;11.84;67.72;101668.91;5112593;28;20487;-82
2022/10/04 03:36:27;;;;;;;0.50;0.50;;;;;;;11.84;67.54;101671.53;5119146;28;20160;-81
2022/10/04 03:38:59;;;;;;;0.82;0.82;;;;;;;11.82;67.37;101657.53;5107274;28;20182;-82
2022/10/04 03:41:29;;;;;;;0.80;0.80;;;;;;;11.82;67.95;101660.16;5111123;28;20053;-81
2022/10/04 03:44:00;;;;;;;0.52;0.52;;;;;;;11.81;67.62;101656.69;5111767;28;20047;-83
2022/10/04 03:46:31;;;;;;;1.58;1.00;;;;;;;11.79;67.86;101660.19;5136464;28;20117;-82
2022/10/04 03:49:14;;;;;;;;;;;;;;;;;;;;;
2022/10/04 03:51:51;;;;;;;0.55;0.55;;;;;;;11.74;68.18;101633.13;5146506;28;20038;-82
2022/10/04 03:54:26;;;;;;;1.83;1.60;;;;;;;11.73;67.99;101634.03;5085656;28;20057;-82
2022/10/04 03:56:59;;;;;;;1.17;1.08;;;;;;;11.69;67.75;101638.47;5094250;28;20038;-82
2022/10/04 03:59:30;;;;;;;1.27;0.73;;;;;;;11.70;68.22;101631.44;5134600;28;20456;-82
2022/10/04 04:02:03;;;;;;;1.73;1.48;;;;;;;11.69;67.98;101634.97;5087120;28;20362;-82
2022/10/04 04:04:47;;;;;;;0.50;0.50;;;;;;;11.65;68.14;101635.03;5105626;28;20051;-82
2022/10/04 04:07:30;;;;;;;0.43;0.43;;;;;;;11.66;68.01;101633.25;5143873;28;20069;-82
2022/10/04 04:10:25;;;;;;;0.30;0.30;;;;;;;11.66;67.63;101641.13;5089197;28;20043;-81
2022/10/04 04:13:03;;;;;;;0.30;0.30;;;;;;;11.65;67.36;101642.06;5140721;28;20069;-82
2022/10/04 04:15:47;;;;;;;8.88;3.35;;;;;;;11.58;68.10;101643.91;5124153;28;20411;-81
2022/10/04 04:18:20;;;;;;;5.05;2.33;;;;;;;11.60;67.71;101635.97;5122615;28;20122;-81
2022/10/04 04:20:57;;;;;;;1.48;0.70;;;;;;;11.56;67.91;101634.31;5106700;28;20039;-82
2022/10/04 04:23:43;;;;;;;0.40;0.35;;;;;;;11.54;67.43;101625.59;5109273;28;20054;-81
2022/10/04 04:26:18;;;;;;;1.48;1.38;;;;;;;11.53;67.50;101637.84;5089852;28;20054;-81
2022/10/04 04:29:03;;;;;;;0.55;0.55;;;;;;;11.49;67.75;101638.81;5104997;28;20089;-81
2022/10/04 04:31:51;;;;;;;0.40;0.40;;;;;;;11.43;67.18;101638.91;5092489;28;20396;-81
2022/10/04 04:34:31;;;;;;;0.50;0.50;;;;;;;11.42;67.01;101632.75;5121232;28;20663;-81
2022/10/04 04:37:03;;;;;;;0.47;0.47;;;;;;;11.40;67.57;101628.44;5129255;28;20115;-81
2022/10/04 04:39:33;;;;;;;0.65;0.65;;;;;;;11.38;67.96;101632.84;5076311;28;20581;-81
2022/10/04 04:42:17;;;;;;;0.30;0.30;;;;;;;11.36;68.06;101632.00;5104141;28;20038;-81
2022/10/04 04:44:52;;;;;;;7.30;0.95;;;;;;;11.32;67.51;101625.94;5099241;28;20047;-81
2022/10/04 04:47:40;;;;;;;0.77;0.77;;;;;;;11.33;67.29;101618.03;5135880;28;20047;-81
2022/10/04 04:50:15;;;;;;;0.75;0.75;;;;;;;11.32;68.14;101613.66;5091124;28;20038;-81
2022/10/04 04:52:52;;;;;;;0.55;0.55;;;;;;;11.30;68.21;101606.69;5121429;28;20069;-81
2022/10/04 04:55:28;;;;;;;1.65;1.38;;;;;;;11.29;67.87;101611.06;5122032;28;20039;-81
2022/10/04 04:57:59;;;;;;;2.03;1.92;;;;;;;11.22;68.05;101609.44;5107540;28;20763;-81
2022/10/04 05:00:37;;;;;;;0.57;0.57;;;;;;;11.25;68.47;101600.63;5109798;28;20045;-81
2022/10/04 05:03:18;;;;;;;1.63;0.77;;;;;;;11.24;67.90;101606.81;5108371;28;20082;-81
2022/10/04 05:05:50;;;;;;;0.50;0.50;;;;;;;11.18;67.95;101608.63;5103567;28;20031;-81
2022/10/04 05:08:27;;;;;;;3.17;1.58;;;;;;;11.21;67.71;101602.44;5107637;28;20054;-81
2022/10/04 05:11:11;;;;;;;0.95;0.95;;;;;;;11.20;67.50;101595.44;5094086;28;20162;-81
2022/10/04 05:13:57;;;;;;;0.63;0.63;;;;;;;11.14;67.88;101593.81;5117604;28;20054;-81
2022/10/04 05:16:48;;;;;;;0.47;0.47;;;;;;;11.19;67.93;101596.38;5105473;28;20135;-81
2022/10/04 05:19:42;;;;;;;0.73;0.73;;;;;;;11.16;68.20;101596.41;5118829;28;20066;-81
2022/10/04 05:22:16;;;;;;;1.67;1.58;;;;;;;11.15;67.79;101597.28;5115778;28;20122;-82
2022/10/04 05:24:52;;;;;;;0.40;0.40;;;;;;;11.15;67.90;101606.06;5114018;28;20038;-81
2022/10/04 05:27:36;;;;;;;0.75;0.75;;;;;;;11.16;67.96;101593.78;5113893;28;20247;-81
2022/10/04 05:30:23;;;;;;;1.10;1.10;;;;;;;11.10;68.37;101604.38;5131534;28;20403;-82
2022/10/04 05:33:05;;;;;;;0.47;0.47;;;;;;;11.14;68.07;101601.69;5122034;28;20122;-81
2022/10/04 05:35:51;;;;;;;;;;;;;;;11.09;67.94;101605.28;5096801;28;20049;-82
2022/10/04 05:38:35;;;;;;;0.40;0.40;;;;;;;11.01;68.05;101603.63;5119982;28;19922;-81
2022/10/04 05:41:16;;;;;;;0.40;0.40;;;;;;;11.05;67.66;101593.06;5108653;28;20045;-81
2022/10/04 05:43:50;;;;;;;0.40;0.40;;;;;;;11.02;67.75;101602.75;5146629;28;20034;-81
2022/10/04 05:46:24;;;;;;;1.13;1.08;;;;;;;11.01;68.27;101603.63;5108981;28;20118;-81
2022/10/04 05:49:04;;;;;;;0.65;0.60;;;;;;;10.99;67.71;101597.53;5136546;28;20142;-82
2022/10/04 05:51:48;;;;;;;0.68;0.68;;;;;;;10.98;67.60;101601.03;5093665;28;20038;-81
2022/10/04 05:54:27;;;;;;;0.52;0.52;;;;;;;10.91;67.69;101590.66;5106202;28;20051;-81
2022/10/04 05:57:27;;;;;;;1.58;1.48;;;;;;;10.94;67.83;101593.22;5107405;28;20695;-81
2022/10/04 06:00:08;;;;;;;0.60;0.60;;;;;;;10.94;67.65;101588.84;5138571;28;20119;-81
2022/10/04 06:02:53;;;;;;;0.70;0.70;;;;;;;10.91;67.48;101588.03;5106365;28;20047;-82
2022/10/04 06:05:35;;;;;;;1.08;0.50;;;;;;;10.83;68.00;101590.75;5130799;28;20590;-82
2022/10/04 06:08:20;;;;;;;1.25;1.17;;;;;;;10.80;68.31;101596.03;5137108;28;20037;-84
2022/10/04 06:10:59;;;;;;;0.90;0.90;;;;;;;10.80;67.94;101596.94;5112830;28;20050;-84
2022/10/04 06:13:44;;;;;;;1.05;1.05;;;;;;;10.80;68.34;101591.69;5104446;28;20042;-82
2022/10/04 06:16:45;;;;;;;0.70;0.70;;;;;;;10.79;68.19;101594.31;5119563;28;20513;-80
2022/10/04 06:19:29;;;;;;;0.50;0.50;;;;;;;10.79;67.97;101596.94;5117355;28;20134;-81
2022/10/04 06:22:05;;;;;;;1.40;1.25;;;;;;;10.78;67.98;101600.47;5092660;28;20039;-82
2022/10/04 06:24:39;;;;;;;2.20;1.38;;;;;;;10.80;67.78;101596.03;5088574;28;20050;-81
2022/10/04 06:27:35;;;;;;;1.58;0.95;;;;;;;10.78;67.84;101592.59;5112048;28;20077;-82
2022/10/04 06:30:14;;;;;;;1.13;0.93;;;;;;;10.80;67.89;101598.66;5108040;28;20724;-79
2022/10/04 06:33:30;;;;;;;0.40;0.40;;;;;;;10.80;67.90;101598.66;5111467;28;20051;-79
2022/10/04 06:36:14;;;;;;;1.38;0.85;;;;;;;10.78;68.09;101597.84;5113115;28;20166;-82
2022/10/04 06:39:00;;;;;;;0.30;0.30;;;;;;;10.87;68.09;101602.94;5128836;28;20585;-83
2022/10/04 06:42:00;;;;;;;0.60;0.60;;;;;;;10.80;68.38;101611.78;5094301;28;20647;-79
2022/10/04 06:44:52;;;;;;;0.73;0.73;;;;;;;10.76;68.87;101599.63;5107453;28;20069;-80
2022/10/04 06:47:41;;;;;;;1.20;0.60;;;;;;;10.76;68.15;101602.25;5140772;28;20444;-82
2022/10/04 06:50:23;;;;;;;0.73;0.73;;;;;;;10.78;68.60;101608.34;5101549;28;20779;-82
2022/10/04 06:53:04;;;;;;;0.82;0.82;;;;;;;10.81;68.55;101600.41;5103111;29;20049;-82
2022/10/04 06:55:45;;;;;;;0.63;0.63;;;;;;;10.81;68.53;101598.66;5108875;28;20035;-83
2022/10/04 06:58:25;;;;;;;1.58;1.25;;;;;;;10.82;68.78;101596.91;5091292;28;20126;-81
2022/10/04 07:01:11;;;;;;;0.82;0.82;;;;;;;10.85;68.35;101604.75;5110227;28;20062;-82
2022/10/04 07:03:44;;;;;;;0.85;0.85;;;;;;;10.83;68.87;101601.25;5122191;28;20053;-82
2022/10/04 07:06:23;;;;;;;4.85;1.92;;;;;;;10.86;69.28;101604.72;5123145;28;20035;-82
2022/10/04 07:08:58;;;;;;;0.47;0.47;;;;;;;10.88;69.13;101612.56;5099427;28;20039;-83
2022/10/04 07:11:41;;;;;;;1.25;1.25;;;;;;;10.88;69.63;101604.69;5121340;28;20042;-83
2022/10/04 07:14:19;;;;;;;1.03;1.03;;;;;;;10.93;69.68;101602.88;5108476;28;20047;-83
2022/10/04 07:16:55;;;;;;;41.20;1.48;;;;;;;10.96;69.79;101597.56;5083906;28;20289;-82
2022/10/04 07:19:29;;;;;;;1.50;0.88;;;;;;;11.01;69.78;101603.63;5105143;28;20392;-83
2022/10/04 07:22:06;;;;;;;1.05;1.02;;;;;;;11.12;70.44;101600.84;5092815;28;20042;-83
2022/10/04 07:24:42;;;;;;;0.73;0.73;;;;;;;11.05;70.55;101599.19;5093446;28;20133;-80
2022/10/04 07:27:22;;;;;;;1.05;0.88;;;;;;;11.22;70.97;101603.31;5125976;28;20073;-83
2022/10/04 07:30:03;;;;;;;0.85;0.80;;;;;;;11.14;70.39;101600.81;5108059;28;20059;-83
2022/10/04 07:32:37;;;;;;;0.40;0.40;;;;;;;11.14;70.71;101606.06;5095696;28;20042;-83
2022/10/04 07:35:15;;;;;;;1.80;1.65;;;;;;;11.17;70.43;101606.88;5088240;28;20095;-82
2022/10/04 07:37:57;;;;;;;1.48;0.98;;;;;;;11.21;70.25;101602.44;5089755;28;20516;-84
2022/10/04 07:40:37;;;;;;;0.40;0.40;;;;;;;11.24;70.14;101602.41;5128681;28;20097;-83
2022/10/04 07:43:24;;;;;;;0.40;0.40;;;;;;;11.24;70.74;101601.56;5120948;28;20799;-83
2022/10/04 07:46:39;;;;;;;2.00;1.85;;;;;;;11.25;71.31;101600.63;5124884;28;20633;-83
2022/10/04 07:49:21;;;;;;;1.75;1.05;;;;;;;11.31;70.64;101603.19;5100068;28;20050;-83
2022/10/04 07:52:17;;;;;;;0.57;0.57;;;;;;;11.39;69.67;101621.44;5134160;28;20047;-83
2022/10/04 07:55:22;;;;;;;0.52;0.52;;;;;;;11.42;69.86;101617.00;5100748;28;20051;-83
2022/10/04 07:58:06;;;;;;;0.40;0.40;;;;;;;11.40;70.75;101625.81;5123325;28;20046;-83
2022/10/04 08:00:42;;;;;;;0.52;0.52;;;;;;;11.44;70.72;101614.38;5105247;28;20050;-83
2022/10/04 08:03:36;;;;;;;0.45;0.45;;;;;;;11.46;70.65;101609.94;5129065;23;20078;-80
2022/10/04 08:07:49;;;;;;;1.10;1.05;;;;;;;11.51;70.93;101600.22;5112702;28;20047;-79
2022/10/04 08:11:18;;;;;;;0.65;0.65;;;;;;;11.53;71.42;101601.03;5026067;29;20052;-79
2022/10/04 08:14:28;;;;;;;5.22;1.67;;;;;;;11.57;71.41;101605.38;4985597;29;20137;-80
2022/10/04 08:17:21;;;;;;;1.05;1.05;;;;;;;11.65;71.09;101598.22;5056323;29;20046;-80
2022/10/04 08:20:30;;;;;;;0.90;0.90;;;;;;;11.69;71.05;101598.19;5090313;29;20039;-80
2022/10/04 08:23:26;;;;;;;;;;;;;;;;;;;;;
2022/10/04 08:27:20;;;;;;;1.55;0.95;;;;;;;11.76;72.22;101591.91;5101438;28;20035;-79
2022/10/04 08:30:43;;;;;;;0.50;0.50;;;;;;;11.77;71.84;101589.25;5066633;29;20042;-80
2022/10/04 08:34:13;;;;;;;2.15;1.23;;;;;;;11.86;72.44;101603.13;5078392;29;20531;-80
2022/10/04 08:37:14;;;;;;;1.00;0.93;;;;;;;11.85;72.43;101599.63;5093272;29;20262;-80
2022/10/04 08:39:59;;;;;;;0.50;0.50;;;;;;;11.90;71.79;101596.91;5095509;29;20079;-81
2022/10/04 08:42:43;;;;;;;0.75;0.75;;;;;;;11.93;74.16;101591.59;5085790;29;20131;-80
2022/10/04 08:46:02;;;;;;;0.25;0.25;;;;;;;11.94;72.96;101582.81;5100880;29;20158;-80
2022/10/04 08:48:48;;;;;;;0.80;0.80;;;;;;;11.93;73.52;101581.94;5097447;28;20052;-81
2022/10/04 08:51:39;;;;;;;2.83;1.80;;;;;;;11.96;73.28;101594.16;5085929;29;20051;-82
2022/10/04 08:54:22;;;;;;;1.00;0.70;;;;;;;12.01;73.15;101596.75;5075123;29;20444;-80
2022/10/04 08:56:56;;;;;;;1.47;1.37;;;;;;;12.06;73.55;101600.16;5111913;29;20047;-82
2022/10/04 08:59:36;;;;;;;0.55;0.55;;;;;;;12.08;72.57;101593.09;5066833;29;20287;-81
2022/10/04 09:02:35;;;;;;;3.20;1.27;;;;;;;12.05;73.81;101583.50;5066711;29;20044;-81
2022/10/04 09:05:27;;;;;;;0.47;0.47;;;;;;;12.12;73.44;101579.84;5115475;28;20047;-81
2022/10/04 09:08:08;;;;;;;1.85;1.75;;;;;;;12.19;73.68;101577.94;5060912;29;20563;-81
2022/10/04 09:10:57;;;;;;;0.43;0.43;;;;;;;12.22;73.69;101583.16;5100594;29;20146;-80
2022/10/04 09:13:42;;;;;;;1.23;1.23;;;;;;;12.25;73.30;101580.47;5070351;29;20566;-81
2022/10/04 09:16:22;;;;;;;1.10;1.08;;;;;;;12.31;73.55;101586.50;5070858;29;20549;-81
2022/10/04 09:19:25;;;;;;;1.23;1.13;;;;;;;12.34;73.78;101578.56;5111095;28;20641;-80
2022/10/04 09:21:55;;;;;;;0.77;0.73;;;;;;;12.35;74.46;101583.78;5117270;29;20050;-82
2022/10/04 09:24:50;;;;;;;2.13;1.63;;;;;;;12.42;74.36;101576.63;5084165;29;20039;-80
2022/10/04 09:27:29;;;;;;;1.20;1.15;;;;;;;12.47;74.51;101576.53;5084873;28;20125;-80
2022/10/04 09:30:23;;;;;;;0.82;0.82;;;;;;;12.48;73.92;101587.03;5068751;29;20531;-80
2022/10/04 09:33:19;;;;;;;1.70;1.60;;;;;;;12.50;73.74;101577.34;5070218;29;20058;-80
2022/10/04 09:35:59;;;;;;;0.63;0.63;;;;;;;12.57;73.90;101578.94;5082488;29;20043;-80
2022/10/04 09:39:20;;;;;;;0.90;0.90;;;;;;;12.60;74.68;101567.47;5067486;29;20048;-80
2022/10/04 09:42:28;;;;;;;1.23;1.13;;;;;;;12.70;74.17;101570.75;5083264;29;20091;-80
2022/10/04 09:45:20;;;;;;;1.23;1.13;;;;;;;12.71;74.65;101560.19;5068528;29;20048;-80
2022/10/04 09:47:55;;;;;;;1.02;1.02;;;;;;;12.77;73.67;101560.94;5080049;29;20451;-79
2022/10/04 09:50:53;;;;;;;0.90;0.90;;;;;;;12.80;74.76;101559.13;5085093;29;20102;-80
2022/10/04 09:53:32;;;;;;;0.50;0.50;;;;;;;12.87;74.40;101550.16;5084451;29;20409;-80
2022/10/04 09:56:31;;;;;;;0.73;0.73;;;;;;;12.90;74.08;101552.75;5067762;29;20573;-79
2022/10/04 09:59:28;;;;;;;1.20;1.13;;;;;;;12.97;74.16;101555.22;5075221;29;20780;-80
2022/10/04 10:02:06;;;;;;;0.43;0.43;;;;;;;13.05;74.13;101556.78;5105336;29;20103;-80
2022/10/04 10:05:25;;;;;;;0.50;0.40;;;;;;;13.08;74.69;101555.84;5092245;29;20055;-79
2022/10/04 10:08:31;;;;;;;0.45;0.45;;;;;;;13.18;74.62;101554.69;5091892;29;20098;-80
2022/10/04 10:14:04;;;;;;;1.10;1.00;;;;;;;13.27;74.51;101555.38;5103327;28;20103;-80
2022/10/04 10:16:48;;;;;;;1.45;1.27;;;;;;;13.38;74.30;101551.63;5116606;28;20110;-80
2022/10/04 10:19:41;;;;;;;0.90;0.80;;;;;;;13.53;75.02;101552.13;5100356;28;20066;-80
2022/10/04 10:22:54;;;;;;;0.63;0.63;;;;;;;13.54;73.85;101549.44;5103291;29;20047;-80
2022/10/04 10:25:43;;;;;;;0.40;0.40;;;;;;;13.54;74.36;101545.94;5103055;29;20567;-80
2022/10/04 10:29:08;;;;;;;;;;;;;;;;;;;;;
2022/10/04 10:32:15;;;;;;;0.73;0.73;;;;;;;13.69;74.39;101549.91;5085138;29;20035;-79
2022/10/04 10:35:24;;;;;;;1.00;0.98;;;;;;;13.74;74.22;101550.69;5069743;29;20403;-79
2022/10/04 10:38:32;;;;;;;0.43;0.43;;;;;;;13.81;73.45;101548.72;5080014;29;20050;-79
2022/10/04 10:41:52;;;;;;;0.47;0.47;;;;;;;13.87;73.57;101545.06;5103112;29;20043;-80
2022/10/04 10:45:12;;;;;;;2.25;2.05;;;;;;;13.90;73.01;101534.44;5030746;29;20648;-80
2022/10/04 10:47:58;;;;;;;0.80;0.80;;;;;;;14.04;72.96;101537.53;5106519;29;20051;-81
2022/10/04 10:51:14;;;;;;;2.97;1.13;;;;;;;14.05;73.33;101530.50;5108164;28;20784;-80
2022/10/04 10:54:14;;;;;;;1.00;1.00;;;;;;;14.06;73.23;101533.09;5057570;29;20076;-81
2022/10/04 10:57:29;;;;;;;0.50;0.50;;;;;;;14.17;72.42;101530.97;5100069;29;20035;-81
2022/10/04 11:00:22;;;;;;;0.52;0.50;;;;;;;14.23;72.73;101529.09;5082689;29;20684;-81
2022/10/04 11:03:30;;;;;;;0.45;0.38;;;;;;;14.27;72.89;101530.72;5092607;29;20058;-82
2022/10/04 11:06:23;;;;;;;0.47;0.47;;;;;;;14.36;72.67;101525.16;5108157;29;20663;-83
2022/10/04 11:09:06;;;;;;;;;;;;;;;14.38;71.93;101527.78;5118055;29;20059;-81
2022/10/04 11:11:59;;;;;;;1.92;1.42;;;;;;;14.43;71.74;101521.41;5103736;29;19925;-82
2022/10/04 11:14:58;;;;;;;0.85;0.85;;;;;;;14.49;72.07;101520.38;5089138;29;20039;-81
2022/10/04 11:18:01;;;;;;;0.52;0.52;;;;;;;14.66;72.13;101511.97;5109453;28;20039;-82
2022/10/04 11:20:50;;;;;;;0.50;0.50;;;;;;;14.65;71.89;101515.50;5067316;29;20046;-81
2022/10/04 11:23:50;;;;;;;0.35;0.35;;;;;;;14.79;71.05;101508.00;5114367;29;20115;-82
2022/10/04 11:26:45;;;;;;;0.40;0.40;;;;;;;14.81;70.82;101507.97;5074559;29;20046;-80
2022/10/04 11:29:38;;;;;;;0.57;0.57;;;;;;;14.94;70.23;101495.22;5100607;29;20039;-81
2022/10/04 11:32:44;;;;;;;0.40;0.40;;;;;;;15.09;68.85;101505.28;5088738;29;20027;-80
2022/10/04 11:35:43;;;;;;;1.60;0.80;;;;;;;15.12;69.18;101499.03;5106226;29;20058;-80
2022/10/04 11:38:34;;;;;;;0.40;0.40;;;;;;;15.18;69.85;101500.59;5088437;28;20055;-81
2022/10/04 11:41:20;;;;;;;0.30;0.30;;;;;;;15.55;65.43;101496.69;5077325;29;20042;-82
2022/10/04 11:44:25;;;;;;;0.68;0.68;;;;;;;15.98;63.01;101495.16;5116776;29;20300;-81
2022/10/04 11:46:59;;;;;;;0.20;0.20;;;;;;;15.66;65.41;101486.56;5077930;28;20039;-81
2022/10/04 11:50:02;;;;;;;1.27;1.20;;;;;;;15.76;64.29;101491.50;5069123;29;20039;-81
2022/10/04 11:52:54;;;;;;;1.17;1.15;;;;;;;15.73;65.41;101488.09;5091204;29;20045;-82
2022/10/04 11:55:43;;;;;;;0.93;0.55;;;;;;;15.97;62.44;101493.41;5104258;29;20039;-81
2022/10/04 11:58:34;;;;;;;1.00;0.68;;;;;;;16.34;62.45;101492.00;5111807;28;20054;-80
2022/10/04 12:01:10;;;;;;;0.75;0.75;;;;;;;16.20;61.68;101499.63;5098791;29;20100;-80
2022/10/04 12:03:44;;;;;;;0.30;0.30;;;;;;;16.42;61.67;101499.66;5070607;29;20050;-81
2022/10/04 12:06:23;;;;;;;0.55;0.55;;;;;;;16.71;61.58;101499.41;5105856;29;20444;-81
2022/10/04 12:09:23;;;;;;;0.73;0.68;;;;;;;16.45;63.06;101502.16;5084113;29;20043;-81
2022/10/04 12:15:16;;;;;;;0.88;0.88;;;;;;;16.59;64.35;101491.03;5100832;29;20039;-80
2022/10/04 12:18:05;;;;;;;0.30;0.30;;;;;;;16.61;64.32;101483.88;5059474;28;20051;-84
2022/10/04 12:20:52;;;;;;;0.40;0.40;;;;;;;16.81;61.01;101476.91;5086395;29;20043;-81
2022/10/04 12:23:52;;;;;;;0.68;0.68;;;;;;;17.64;54.35;101475.16;5090497;29;20163;-83
2022/10/04 12:26:37;;;;;;;0.30;0.30;;;;;;;17.34;57.83;101472.06;5102875;29;20039;-81
2022/10/04 12:29:30;;;;;;;0.20;0.20;;;;;;;17.47;56.95;101467.97;5095977;29;20054;-81
2022/10/04 12:32:13;;;;;;;0.30;0.30;;;;;;;17.41;56.84;101463.78;5103066;29;20141;-83
2022/10/04 12:35:10;;;;;;;0.20;0.20;;;;;;;17.85;54.62;101459.22;5087448;29;20047;-82
2022/10/04 12:38:09;;;;;;;0.40;0.40;;;;;;;17.64;56.38;101456.59;5066030;28;20047;-81
2022/10/04 12:41:18;;;;;;;0.30;0.30;;;;;;;17.84;56.29;101453.03;5120328;28;20042;-83
2022/10/04 12:44:01;;;;;;;0.30;0.30;;;;;;;17.91;56.09;101451.81;5097892;28;20055;-82
2022/10/04 12:46:57;;;;;;;0.38;0.38;;;;;;;18.05;56.41;101442.38;5080783;29;20055;-82
2022/10/04 12:50:23;;;;;;;0.55;0.55;;;;;;;18.07;56.48;101435.19;5081749;29;20082;-83
2022/10/04 12:53:13;;;;;;;0.30;0.30;;;;;;;18.23;56.60;101437.97;5022958;29;20044;-84
2022/10/04 12:56:20;;;;;;;0.40;0.40;;;;;;;18.32;56.97;101434.88;5048958;29;20032;-84
2022/10/04 12:59:17;;;;;;;1.08;0.63;;;;;;;18.49;54.86;101434.06;5059266;29;20051;-83
2022/10/04 13:02:41;;;;;;;0.40;0.40;;;;;;;18.86;53.90;101429.56;5061482;29;20152;-83
2022/10/04 13:05:33;;;;;;;0.35;0.35;;;;;;;18.87;53.17;101430.41;5085766;29;20035;-83
2022/10/04 13:08:49;;;;;;;0.57;0.57;;;;;;;18.80;56.19;101431.66;5066940;28;20063;-82